ANA50 RJTT-RCSS
Flight info
| Callsign | ANA50 |
|---|---|
| Flight time | N/A |
| Altitude | 40000 |
| Route | LAXAS4 LAXAS Y56 TOHME Y54 TURFY Y24 KOSHI Y50 IGMON A1 APU APU1E |
| Aircraft | A35K/H-S/L |
Departure
| Time | 2026-02-22 05:12 |
|---|---|
| Airport | Tokyo Haneda International Airport (RJTT) |
Arrival
| Time | N/A |
|---|---|
| Airport | Taipei Songshan International Airport (RCSS) |
| Time | Latitude | Longitude | Altitude | Speed | Heading |
|---|---|---|---|---|---|
| 2026-02-22 04:41 | 35.55008 | 139.77013 | 28 ft | 0 kts | 158° |
| 2026-02-22 04:59 | 35.55010 | 139.77012 | 28 ft | 3 kts | 158° |
| 2026-02-22 04:59 | 35.55028 | 139.77003 | 27 ft | 3 kts | 158° |
| 2026-02-22 05:00 | 35.55046 | 139.76994 | 26 ft | 3 kts | 158° |
| 2026-02-22 05:00 | 35.55063 | 139.76985 | 26 ft | 3 kts | 150° |
| 2026-02-22 05:00 | 35.55079 | 139.76971 | 26 ft | 3 kts | 133° |
| 2026-02-22 05:00 | 35.55091 | 139.76951 | 28 ft | 3 kts | 115° |
| 2026-02-22 05:01 | 35.55098 | 139.76929 | 27 ft | 0 kts | 97° |
| 2026-02-22 05:03 | 35.55097 | 139.76932 | 27 ft | 1 kts | 97° |
| 2026-02-22 05:03 | 35.55097 | 139.76974 | 28 ft | 8 kts | 85° |
| 2026-02-22 05:04 | 35.55120 | 139.77049 | 28 ft | 11 kts | 62° |
| 2026-02-22 05:04 | 35.55187 | 139.77089 | 30 ft | 12 kts | 354° |
| 2026-02-22 05:04 | 35.55274 | 139.77038 | 28 ft | 16 kts | 329° |
| 2026-02-22 05:04 | 35.55382 | 139.76959 | 28 ft | 20 kts | 329° |
| 2026-02-22 05:05 | 35.55493 | 139.76914 | 30 ft | 16 kts | 14° |
| 2026-02-22 05:05 | 35.55594 | 139.76990 | 29 ft | 17 kts | 35° |
| 2026-02-22 05:05 | 35.55615 | 139.77008 | 29 ft | 1 kts | 35° |
| 2026-02-22 05:05 | 35.55625 | 139.77017 | 29 ft | 10 kts | 35° |
| 2026-02-22 05:06 | 35.55735 | 139.77111 | 31 ft | 21 kts | 35° |
| 2026-02-22 05:06 | 35.55865 | 139.77222 | 30 ft | 23 kts | 35° |
| 2026-02-22 05:06 | 35.55999 | 139.77337 | 31 ft | 24 kts | 34° |
| 2026-02-22 05:06 | 35.56141 | 139.77459 | 30 ft | 26 kts | 35° |
| 2026-02-22 05:07 | 35.56283 | 139.77582 | 34 ft | 25 kts | 35° |
| 2026-02-22 05:07 | 35.56386 | 139.77724 | 33 ft | 22 kts | 60° |
| 2026-02-22 05:07 | 35.56461 | 139.77886 | 34 ft | 22 kts | 65° |
| 2026-02-22 05:07 | 35.56510 | 139.78038 | 35 ft | 17 kts | 89° |
| 2026-02-22 05:08 | 35.56434 | 139.78149 | 31 ft | 19 kts | 147° |
| 2026-02-22 05:08 | 35.56329 | 139.78222 | 30 ft | 16 kts | 143° |
| 2026-02-22 05:08 | 35.56326 | 139.78349 | 31 ft | 16 kts | 63° |
| 2026-02-22 05:08 | 35.56382 | 139.78469 | 31 ft | 17 kts | 59° |
| 2026-02-22 05:09 | 35.56427 | 139.78563 | 31 ft | 7 kts | 59° |
| 2026-02-22 05:09 | 35.56430 | 139.78569 | 31 ft | 0 kts | 59° |
| 2026-02-22 05:09 | 35.56431 | 139.78571 | 31 ft | 1 kts | 59° |
| 2026-02-22 05:10 | 35.56445 | 139.78600 | 32 ft | 7 kts | 59° |
| 2026-02-22 05:10 | 35.56466 | 139.78646 | 33 ft | 5 kts | 60° |
| 2026-02-22 05:10 | 35.56473 | 139.78686 | 35 ft | 5 kts | 88° |
| 2026-02-22 05:10 | 35.56457 | 139.78738 | 36 ft | 8 kts | 127° |
| 2026-02-22 05:11 | 35.56428 | 139.78768 | 35 ft | 0 kts | 142° |
| 2026-02-22 05:11 | 35.56329 | 139.78845 | 33 ft | 51 kts | 150° |
| 2026-02-22 05:11 | 35.55772 | 139.79238 | 32 ft | 131 kts | 151° |
| 2026-02-22 05:11 | 35.54812 | 139.79953 | 236 ft | 184 kts | 149° |
| 2026-02-22 05:12 | 35.53644 | 139.80831 | 997 ft | 200 kts | 150° |
| 2026-02-22 05:12 | 35.52449 | 139.81653 | 2373 ft | 192 kts | 152° |
| 2026-02-22 05:12 | 35.51331 | 139.82414 | 3572 ft | 179 kts | 151° |
| 2026-02-22 05:12 | 35.50238 | 139.83174 | 4036 ft | 186 kts | 151° |
| 2026-02-22 05:13 | 35.49068 | 139.83995 | 4272 ft | 202 kts | 152° |
| 2026-02-22 05:13 | 35.47698 | 139.84640 | 4498 ft | 218 kts | 171° |
| 2026-02-22 05:13 | 35.46161 | 139.84467 | 4755 ft | 230 kts | 200° |
| 2026-02-22 05:13 | 35.44645 | 139.83606 | 5031 ft | 248 kts | 208° |
| 2026-02-22 05:14 | 35.43115 | 139.82583 | 5526 ft | 255 kts | 210° |
| 2026-02-22 05:14 | 35.41547 | 139.81515 | 6147 ft | 260 kts | 210° |
| 2026-02-22 05:14 | 35.39949 | 139.80434 | 6754 ft | 265 kts | 210° |
| 2026-02-22 05:14 | 35.38323 | 139.79344 | 7375 ft | 268 kts | 210° |
| 2026-02-22 05:15 | 35.36666 | 139.78238 | 8024 ft | 271 kts | 210° |
| 2026-02-22 05:15 | 35.35007 | 139.77133 | 8694 ft | 273 kts | 210° |
| 2026-02-22 05:15 | 35.33328 | 139.76018 | 9378 ft | 275 kts | 210° |
| 2026-02-22 05:15 | 35.31668 | 139.74886 | 10063 ft | 277 kts | 214° |
| 2026-02-22 05:16 | 35.30082 | 139.73466 | 10434 ft | 289 kts | 221° |
| 2026-02-22 05:16 | 35.28509 | 139.71834 | 10727 ft | 304 kts | 223° |
| 2026-02-22 05:16 | 35.26872 | 139.70093 | 11019 ft | 318 kts | 223° |
| 2026-02-22 05:16 | 35.25161 | 139.68281 | 11326 ft | 332 kts | 223° |
| 2026-02-22 05:17 | 35.23373 | 139.66400 | 11625 ft | 345 kts | 223° |
| 2026-02-22 05:17 | 35.21522 | 139.64462 | 11919 ft | 357 kts | 223° |
| 2026-02-22 05:17 | 35.19629 | 139.62485 | 12231 ft | 366 kts | 223° |
| 2026-02-22 05:17 | 35.17669 | 139.60442 | 12707 ft | 371 kts | 223° |
| 2026-02-22 05:18 | 35.15685 | 139.58378 | 13203 ft | 375 kts | 223° |
| 2026-02-22 05:18 | 35.13691 | 139.56304 | 13716 ft | 378 kts | 223° |
| 2026-02-22 05:18 | 35.11705 | 139.54239 | 14176 ft | 381 kts | 223° |
| 2026-02-22 05:18 | 35.09712 | 139.52104 | 14611 ft | 383 kts | 227° |
| 2026-02-22 05:19 | 35.08017 | 139.49600 | 15036 ft | 381 kts | 240° |
| 2026-02-22 05:19 | 35.06907 | 139.46669 | 15510 ft | 380 kts | 254° |
| 2026-02-22 05:19 | 35.06283 | 139.43527 | 15994 ft | 381 kts | 260° |
| 2026-02-22 05:19 | 35.05776 | 139.40375 | 16457 ft | 383 kts | 260° |
| 2026-02-22 05:20 | 35.05266 | 139.37167 | 16928 ft | 385 kts | 260° |
| 2026-02-22 05:20 | 35.04744 | 139.33943 | 17388 ft | 387 kts | 260° |
| 2026-02-22 05:20 | 35.04211 | 139.30704 | 17852 ft | 389 kts | 260° |
| 2026-02-22 05:20 | 35.03680 | 139.27501 | 18296 ft | 392 kts | 260° |
| 2026-02-22 05:21 | 35.03132 | 139.24211 | 18693 ft | 394 kts | 260° |
| 2026-02-22 05:21 | 35.02582 | 139.20918 | 19085 ft | 396 kts | 260° |
| 2026-02-22 05:21 | 35.02034 | 139.17645 | 19487 ft | 398 kts | 260° |
| 2026-02-22 05:21 | 35.01475 | 139.14323 | 19878 ft | 400 kts | 260° |
| 2026-02-22 05:22 | 35.00914 | 139.10997 | 20269 ft | 401 kts | 260° |
| 2026-02-22 05:22 | 35.00349 | 139.07651 | 20667 ft | 403 kts | 260° |
| 2026-02-22 05:22 | 34.99787 | 139.04332 | 21046 ft | 405 kts | 260° |
| 2026-02-22 05:22 | 34.99219 | 139.00956 | 21464 ft | 406 kts | 261° |
| 2026-02-22 05:23 | 34.98818 | 138.97526 | 21867 ft | 407 kts | 265° |
| 2026-02-22 05:23 | 34.98556 | 138.94090 | 22265 ft | 409 kts | 267° |
| 2026-02-22 05:23 | 34.98344 | 138.90620 | 22668 ft | 410 kts | 268° |
| 2026-02-22 05:23 | 34.98160 | 138.87142 | 23088 ft | 412 kts | 268° |
| 2026-02-22 05:24 | 34.97989 | 138.83677 | 23480 ft | 414 kts | 268° |
| 2026-02-22 05:24 | 34.97818 | 138.80157 | 23862 ft | 416 kts | 268° |
| 2026-02-22 05:24 | 34.97641 | 138.76618 | 24209 ft | 418 kts | 268° |
| 2026-02-22 05:24 | 34.97458 | 138.73072 | 24552 ft | 419 kts | 268° |
| 2026-02-22 05:25 | 34.97273 | 138.69554 | 24883 ft | 421 kts | 268° |
| 2026-02-22 05:25 | 34.97083 | 138.65981 | 25218 ft | 422 kts | 268° |
| 2026-02-22 05:25 | 34.96888 | 138.62377 | 25559 ft | 424 kts | 268° |
| 2026-02-22 05:25 | 34.96692 | 138.58782 | 25902 ft | 425 kts | 268° |
| 2026-02-22 05:26 | 34.96498 | 138.55228 | 26226 ft | 427 kts | 268° |
| 2026-02-22 05:26 | 34.96298 | 138.51598 | 26554 ft | 429 kts | 268° |
| 2026-02-22 05:26 | 34.96097 | 138.47968 | 26883 ft | 431 kts | 268° |
| 2026-02-22 05:26 | 34.95892 | 138.44293 | 27229 ft | 432 kts | 268° |
| 2026-02-22 05:27 | 34.95689 | 138.40661 | 27560 ft | 434 kts | 268° |
| 2026-02-22 05:27 | 34.95483 | 138.36980 | 27878 ft | 436 kts | 268° |
| 2026-02-22 05:27 | 34.95274 | 138.33290 | 28202 ft | 438 kts | 268° |
| 2026-02-22 05:27 | 34.95064 | 138.29570 | 28487 ft | 439 kts | 268° |
| 2026-02-22 05:28 | 34.94851 | 138.25840 | 28765 ft | 442 kts | 268° |
| 2026-02-22 05:28 | 34.94636 | 138.22081 | 29021 ft | 444 kts | 268° |
| 2026-02-22 05:28 | 34.94419 | 138.18319 | 29363 ft | 445 kts | 268° |
| 2026-02-22 05:28 | 34.94202 | 138.14598 | 29676 ft | 447 kts | 268° |
| 2026-02-22 05:29 | 34.93981 | 138.10813 | 30107 ft | 446 kts | 268° |
| 2026-02-22 05:29 | 34.93760 | 138.07049 | 30536 ft | 444 kts | 268° |
| 2026-02-22 05:29 | 34.93539 | 138.03283 | 30915 ft | 442 kts | 268° |
| 2026-02-22 05:29 | 34.93318 | 137.99542 | 31298 ft | 440 kts | 268° |
| 2026-02-22 05:30 | 34.93097 | 137.95830 | 31728 ft | 438 kts | 268° |
| 2026-02-22 05:30 | 34.92876 | 137.92141 | 32176 ft | 434 kts | 268° |
| 2026-02-22 05:30 | 34.92657 | 137.88513 | 32580 ft | 432 kts | 268° |
| 2026-02-22 05:30 | 34.92434 | 137.84853 | 32954 ft | 431 kts | 268° |
| 2026-02-22 05:31 | 34.92211 | 137.81202 | 33262 ft | 431 kts | 268° |
| 2026-02-22 05:31 | 34.91987 | 137.77565 | 33572 ft | 430 kts | 268° |
| 2026-02-22 05:31 | 34.91764 | 137.73935 | 33975 ft | 428 kts | 268° |
| 2026-02-22 05:31 | 34.91496 | 137.70337 | 34320 ft | 426 kts | 265° |
| 2026-02-22 05:32 | 34.90954 | 137.66819 | 34657 ft | 426 kts | 259° |
| 2026-02-22 05:32 | 34.90102 | 137.63353 | 34959 ft | 426 kts | 255° |
| 2026-02-22 05:32 | 34.89142 | 137.59931 | 35231 ft | 425 kts | 254° |
| 2026-02-22 05:32 | 34.88137 | 137.56551 | 35503 ft | 425 kts | 253° |
| 2026-02-22 05:33 | 34.87109 | 137.53174 | 35780 ft | 423 kts | 253° |
| 2026-02-22 05:33 | 34.86095 | 137.49866 | 36077 ft | 421 kts | 253° |
| 2026-02-22 05:33 | 34.85074 | 137.46509 | 36350 ft | 420 kts | 253° |
| 2026-02-22 05:33 | 34.84085 | 137.43150 | 36629 ft | 418 kts | 254° |
| 2026-02-22 05:34 | 34.83136 | 137.39852 | 36882 ft | 417 kts | 254° |
| 2026-02-22 05:34 | 34.82186 | 137.36517 | 37128 ft | 416 kts | 254° |
| 2026-02-22 05:34 | 34.81237 | 137.33179 | 37371 ft | 414 kts | 254° |
| 2026-02-22 05:34 | 34.80293 | 137.29866 | 37610 ft | 413 kts | 254° |
| 2026-02-22 05:35 | 34.79356 | 137.26587 | 37809 ft | 413 kts | 254° |
| 2026-02-22 05:35 | 34.78412 | 137.23294 | 38013 ft | 412 kts | 254° |
| 2026-02-22 05:35 | 34.77466 | 137.20006 | 38219 ft | 411 kts | 254° |
| 2026-02-22 05:35 | 34.76589 | 137.16962 | 38412 ft | 410 kts | 254° |
| 2026-02-22 05:36 | 34.75643 | 137.13685 | 38618 ft | 409 kts | 254° |
| 2026-02-22 05:36 | 34.74701 | 137.10426 | 38790 ft | 408 kts | 254° |
| 2026-02-22 05:36 | 34.73767 | 137.07195 | 38903 ft | 408 kts | 254° |
| 2026-02-22 05:36 | 34.72826 | 137.03946 | 39030 ft | 407 kts | 254° |
| 2026-02-22 05:37 | 34.71883 | 137.00697 | 39126 ft | 407 kts | 253° |
| 2026-02-22 05:37 | 34.69425 | 136.94445 | 39204 ft | 414 kts | 242° |
| 2026-02-22 05:37 | 34.67791 | 136.91593 | 39320 ft | 416 kts | 239° |
| 2026-02-22 05:38 | 34.66041 | 136.88787 | 39437 ft | 416 kts | 238° |
| 2026-02-22 05:38 | 34.64249 | 136.86021 | 39574 ft | 416 kts | 237° |
| 2026-02-22 05:38 | 34.62441 | 136.83270 | 39677 ft | 416 kts | 237° |
| 2026-02-22 05:39 | 34.58829 | 136.77778 | 39877 ft | 415 kts | 237° |
| 2026-02-22 05:39 | 34.57050 | 136.75057 | 39978 ft | 414 kts | 237° |
| 2026-02-22 05:39 | 34.55268 | 136.72321 | 40062 ft | 414 kts | 237° |
| 2026-02-22 05:40 | 34.51694 | 136.66820 | 40082 ft | 417 kts | 238° |
| 2026-02-22 05:40 | 34.48076 | 136.61251 | 40077 ft | 419 kts | 237° |
| 2026-02-22 05:41 | 34.44477 | 136.55729 | 40077 ft | 419 kts | 238° |
| 2026-02-22 05:41 | 34.40869 | 136.50204 | 40076 ft | 418 kts | 237° |
| 2026-02-22 05:42 | 34.37274 | 136.44704 | 40065 ft | 418 kts | 237° |
| 2026-02-22 05:42 | 34.31851 | 136.36426 | 40068 ft | 418 kts | 237° |
| 2026-02-22 05:43 | 34.28245 | 136.30930 | 40074 ft | 418 kts | 237° |
| 2026-02-22 05:43 | 34.25228 | 136.26336 | 40081 ft | 417 kts | 237° |
| 2026-02-22 05:44 | 34.21027 | 136.19956 | 40072 ft | 416 kts | 237° |
| 2026-02-22 05:44 | 34.18020 | 136.15395 | 40076 ft | 418 kts | 237° |
| 2026-02-22 05:45 | 34.14532 | 136.10109 | 40076 ft | 420 kts | 237° |
| 2026-02-22 05:45 | 34.10901 | 136.04616 | 40081 ft | 421 kts | 237° |
| 2026-02-22 05:46 | 34.07234 | 135.99076 | 40079 ft | 421 kts | 237° |
| 2026-02-22 05:46 | 34.03604 | 135.93606 | 40076 ft | 419 kts | 237° |
| 2026-02-22 05:47 | 33.99961 | 135.88118 | 40080 ft | 419 kts | 237° |
| 2026-02-22 05:47 | 33.96327 | 135.82649 | 40082 ft | 419 kts | 237° |
| 2026-02-22 05:48 | 33.92667 | 135.77156 | 40087 ft | 419 kts | 237° |
| 2026-02-22 05:48 | 33.89019 | 135.71694 | 40085 ft | 419 kts | 237° |
| 2026-02-22 05:49 | 33.85362 | 135.66223 | 40075 ft | 419 kts | 237° |
| 2026-02-22 05:49 | 33.81724 | 135.60787 | 40070 ft | 419 kts | 237° |
| 2026-02-22 05:50 | 33.78061 | 135.55320 | 40063 ft | 419 kts | 237° |
| 2026-02-22 05:50 | 33.74420 | 135.49893 | 40054 ft | 419 kts | 237° |
| 2026-02-22 05:51 | 33.70752 | 135.44433 | 40046 ft | 419 kts | 237° |
| 2026-02-22 05:51 | 33.67086 | 135.38986 | 40047 ft | 418 kts | 237° |
| 2026-02-22 05:52 | 33.63421 | 135.33550 | 40046 ft | 418 kts | 237° |
| 2026-02-22 05:52 | 33.59783 | 135.28163 | 40047 ft | 418 kts | 237° |
| 2026-02-22 05:53 | 33.56112 | 135.22735 | 40058 ft | 418 kts | 237° |
| 2026-02-22 05:53 | 33.52449 | 135.17326 | 40063 ft | 417 kts | 237° |
| 2026-02-22 05:54 | 33.48787 | 135.11926 | 40070 ft | 416 kts | 237° |
| 2026-02-22 05:54 | 33.45146 | 135.06567 | 40075 ft | 416 kts | 237° |
| 2026-02-22 05:55 | 33.41497 | 135.01203 | 40093 ft | 415 kts | 237° |
| 2026-02-22 05:55 | 33.37862 | 134.95863 | 40082 ft | 414 kts | 237° |
| 2026-02-22 05:56 | 33.34217 | 134.90508 | 40083 ft | 414 kts | 237° |
| 2026-02-22 05:56 | 33.30574 | 134.85164 | 40083 ft | 414 kts | 237° |
| 2026-02-22 05:57 | 33.26948 | 134.79854 | 40075 ft | 414 kts | 237° |
| 2026-02-22 05:57 | 33.23316 | 134.74543 | 40073 ft | 413 kts | 237° |
| 2026-02-22 05:58 | 33.19674 | 134.69226 | 40085 ft | 413 kts | 237° |
| 2026-02-22 05:58 | 33.16484 | 134.63560 | 40075 ft | 406 kts | 247° |
| 2026-02-22 05:59 | 33.14491 | 134.57341 | 40081 ft | 402 kts | 255° |
| 2026-02-22 05:59 | 33.12914 | 134.50942 | 40077 ft | 401 kts | 256° |
| 2026-02-22 06:00 | 33.11395 | 134.44549 | 40077 ft | 401 kts | 256° |
| 2026-02-22 06:00 | 33.09842 | 134.38139 | 40080 ft | 401 kts | 256° |
| 2026-02-22 06:01 | 33.08267 | 134.31747 | 40081 ft | 401 kts | 256° |
| 2026-02-22 06:01 | 33.06690 | 134.25388 | 40076 ft | 401 kts | 256° |
| 2026-02-22 06:02 | 33.05122 | 134.19001 | 40070 ft | 400 kts | 256° |
| 2026-02-22 06:02 | 33.03589 | 134.12661 | 40074 ft | 400 kts | 256° |
| 2026-02-22 06:03 | 33.02052 | 134.06312 | 40075 ft | 400 kts | 256° |
| 2026-02-22 06:03 | 33.00505 | 133.99948 | 40071 ft | 399 kts | 256° |
| 2026-02-22 06:04 | 32.98951 | 133.93577 | 40068 ft | 399 kts | 256° |
| 2026-02-22 06:04 | 32.97408 | 133.87268 | 40066 ft | 399 kts | 256° |
| 2026-02-22 06:05 | 32.95851 | 133.80919 | 40061 ft | 398 kts | 256° |
| 2026-02-22 06:05 | 32.94296 | 133.74592 | 40058 ft | 398 kts | 256° |
| 2026-02-22 06:06 | 32.92737 | 133.68265 | 40062 ft | 398 kts | 256° |
| 2026-02-22 06:06 | 32.91183 | 133.61972 | 40060 ft | 398 kts | 256° |
| 2026-02-22 06:07 | 32.89618 | 133.55647 | 40056 ft | 398 kts | 256° |
| 2026-02-22 06:07 | 32.88050 | 133.49330 | 40056 ft | 397 kts | 256° |
| 2026-02-22 06:08 | 32.86491 | 133.43063 | 40056 ft | 397 kts | 256° |
| 2026-02-22 06:08 | 32.84915 | 133.36741 | 40048 ft | 397 kts | 256° |
| 2026-02-22 06:09 | 32.83342 | 133.30448 | 40050 ft | 397 kts | 256° |
| 2026-02-22 06:09 | 32.81768 | 133.24164 | 40049 ft | 397 kts | 256° |
| 2026-02-22 06:10 | 32.80191 | 133.17884 | 40044 ft | 397 kts | 256° |
| 2026-02-22 06:10 | 32.78606 | 133.11585 | 40042 ft | 397 kts | 256° |
| 2026-02-22 06:11 | 32.77021 | 133.05305 | 40039 ft | 397 kts | 256° |
| 2026-02-22 06:11 | 32.75196 | 132.99079 | 40038 ft | 400 kts | 249° |
| 2026-02-22 06:12 | 32.72638 | 132.93187 | 40040 ft | 403 kts | 246° |
| 2026-02-22 06:12 | 32.69918 | 132.87368 | 40032 ft | 404 kts | 245° |
| 2026-02-22 06:13 | 32.67172 | 132.81550 | 40030 ft | 404 kts | 245° |
| 2026-02-22 06:13 | 32.64434 | 132.75719 | 40029 ft | 403 kts | 246° |
| 2026-02-22 06:14 | 32.61718 | 132.69918 | 40029 ft | 403 kts | 246° |
| 2026-02-22 06:14 | 32.58995 | 132.64105 | 40024 ft | 402 kts | 246° |
| 2026-02-22 06:15 | 32.56284 | 132.58326 | 40021 ft | 402 kts | 246° |
| 2026-02-22 06:15 | 32.53558 | 132.52527 | 40022 ft | 402 kts | 246° |
| 2026-02-22 06:16 | 32.50853 | 132.46782 | 40022 ft | 401 kts | 246° |
| 2026-02-22 06:16 | 32.48127 | 132.41002 | 40018 ft | 401 kts | 246° |
| 2026-02-22 06:17 | 32.45414 | 132.35258 | 40012 ft | 401 kts | 246° |
| 2026-02-22 06:17 | 32.42687 | 132.29493 | 40014 ft | 400 kts | 245° |
| 2026-02-22 06:18 | 32.39973 | 132.23766 | 40010 ft | 400 kts | 246° |
| 2026-02-22 06:18 | 32.37254 | 132.18038 | 40006 ft | 399 kts | 246° |
| 2026-02-22 06:19 | 32.34529 | 132.12303 | 40006 ft | 399 kts | 246° |
| 2026-02-22 06:19 | 32.31815 | 132.06600 | 40008 ft | 398 kts | 246° |
| 2026-02-22 06:20 | 32.29104 | 132.00915 | 40003 ft | 398 kts | 246° |
| 2026-02-22 06:20 | 32.26378 | 131.95208 | 40005 ft | 398 kts | 246° |
| 2026-02-22 06:21 | 32.23655 | 131.89513 | 39996 ft | 397 kts | 246° |
| 2026-02-22 06:21 | 32.20949 | 131.83864 | 39997 ft | 396 kts | 246° |
| 2026-02-22 06:22 | 32.18224 | 131.78182 | 39998 ft | 396 kts | 246° |
| 2026-02-22 06:22 | 32.15519 | 131.72551 | 39999 ft | 396 kts | 246° |
| 2026-02-22 06:23 | 32.12795 | 131.66890 | 40004 ft | 396 kts | 246° |
| 2026-02-22 06:23 | 32.10072 | 131.61240 | 40011 ft | 396 kts | 246° |
| 2026-02-22 06:24 | 32.07347 | 131.55593 | 40013 ft | 396 kts | 246° |
| 2026-02-22 06:24 | 32.04619 | 131.49948 | 40014 ft | 395 kts | 246° |
| 2026-02-22 06:25 | 32.01911 | 131.44355 | 40018 ft | 395 kts | 246° |
| 2026-02-22 06:25 | 31.99188 | 131.38739 | 40022 ft | 394 kts | 246° |
| 2026-02-22 06:26 | 31.96469 | 131.33139 | 40016 ft | 394 kts | 246° |
| 2026-02-22 06:26 | 31.93745 | 131.27535 | 40024 ft | 393 kts | 246° |
| 2026-02-22 06:27 | 31.91028 | 131.21955 | 40017 ft | 392 kts | 246° |
| 2026-02-22 06:27 | 31.88314 | 131.16386 | 40025 ft | 392 kts | 246° |
| 2026-02-22 06:28 | 31.85596 | 131.10826 | 40026 ft | 391 kts | 246° |
| 2026-02-22 06:28 | 31.82880 | 131.05277 | 40035 ft | 391 kts | 246° |
| 2026-02-22 06:29 | 31.80180 | 130.99764 | 40038 ft | 390 kts | 246° |
| 2026-02-22 06:29 | 31.77926 | 130.95172 | 40039 ft | 390 kts | 246° |
| 2026-02-22 06:30 | 31.74768 | 130.88743 | 40046 ft | 389 kts | 246° |
| 2026-02-22 06:30 | 31.72056 | 130.83229 | 40046 ft | 389 kts | 246° |
| 2026-02-22 06:31 | 31.69801 | 130.78651 | 40044 ft | 389 kts | 246° |
| 2026-02-22 06:31 | 31.67105 | 130.73185 | 40044 ft | 388 kts | 246° |
| 2026-02-22 06:32 | 31.64396 | 130.67705 | 40044 ft | 388 kts | 246° |
| 2026-02-22 06:32 | 31.61683 | 130.62221 | 40038 ft | 388 kts | 246° |
| 2026-02-22 06:33 | 31.58976 | 130.56755 | 40034 ft | 387 kts | 246° |
| 2026-02-22 06:33 | 31.56265 | 130.51292 | 40029 ft | 387 kts | 246° |
| 2026-02-22 06:34 | 31.53569 | 130.45865 | 40026 ft | 387 kts | 246° |
| 2026-02-22 06:34 | 31.50853 | 130.40403 | 40027 ft | 387 kts | 246° |
| 2026-02-22 06:35 | 31.48151 | 130.34984 | 40032 ft | 387 kts | 246° |
| 2026-02-22 06:35 | 31.45431 | 130.29537 | 40032 ft | 387 kts | 246° |
| 2026-02-22 06:36 | 31.42711 | 130.24095 | 40027 ft | 386 kts | 246° |
| 2026-02-22 06:36 | 31.40011 | 130.18702 | 40043 ft | 386 kts | 246° |
| 2026-02-22 06:37 | 31.37283 | 130.13258 | 40037 ft | 386 kts | 246° |
| 2026-02-22 06:37 | 31.34583 | 130.07877 | 40035 ft | 385 kts | 246° |
| 2026-02-22 06:38 | 31.31865 | 130.02470 | 40034 ft | 384 kts | 246° |
| 2026-02-22 06:38 | 31.29122 | 129.97118 | 40031 ft | 386 kts | 243° |
| 2026-02-22 06:39 | 31.25902 | 129.92009 | 40032 ft | 389 kts | 240° |
| 2026-02-22 06:39 | 31.22599 | 129.87057 | 40032 ft | 389 kts | 240° |
| 2026-02-22 06:40 | 31.19248 | 129.82080 | 40032 ft | 389 kts | 240° |
| 2026-02-22 06:40 | 31.15914 | 129.77117 | 40033 ft | 388 kts | 240° |
| 2026-02-22 06:41 | 31.12583 | 129.72149 | 40035 ft | 388 kts | 240° |
| 2026-02-22 06:41 | 31.09269 | 129.67209 | 40034 ft | 387 kts | 240° |
| 2026-02-22 06:42 | 31.05946 | 129.62263 | 40036 ft | 386 kts | 240° |
| 2026-02-22 06:42 | 31.02645 | 129.57357 | 40036 ft | 385 kts | 240° |
| 2026-02-22 06:43 | 30.99319 | 129.52419 | 40036 ft | 385 kts | 240° |
| 2026-02-22 06:43 | 30.96026 | 129.47536 | 40030 ft | 384 kts | 240° |
| 2026-02-22 06:44 | 30.92737 | 129.42665 | 40029 ft | 383 kts | 240° |
| 2026-02-22 06:44 | 30.89448 | 129.37800 | 40035 ft | 383 kts | 240° |
| 2026-02-22 06:45 | 30.86151 | 129.32929 | 40038 ft | 382 kts | 240° |
| 2026-02-22 06:45 | 30.82852 | 129.28061 | 40029 ft | 381 kts | 240° |
| 2026-02-22 06:46 | 30.79565 | 129.23219 | 40030 ft | 381 kts | 240° |
| 2026-02-22 06:47 | 30.74713 | 129.15971 | 40036 ft | 378 kts | 241° |
| 2026-02-22 06:47 | 30.71532 | 129.11110 | 40033 ft | 377 kts | 241° |
| 2026-02-22 06:48 | 30.68346 | 129.06245 | 40033 ft | 377 kts | 241° |
| 2026-02-22 06:48 | 30.65181 | 129.01431 | 40032 ft | 376 kts | 241° |
| 2026-02-22 06:49 | 30.62005 | 128.96611 | 40032 ft | 375 kts | 241° |
| 2026-02-22 06:49 | 30.58828 | 128.91796 | 40032 ft | 375 kts | 241° |
| 2026-02-22 06:50 | 30.55652 | 128.86989 | 40032 ft | 374 kts | 241° |
| 2026-02-22 06:50 | 30.52486 | 128.82203 | 40032 ft | 374 kts | 241° |
| 2026-02-22 06:51 | 30.49321 | 128.77423 | 40031 ft | 373 kts | 241° |
| 2026-02-22 06:51 | 30.46154 | 128.72645 | 40030 ft | 373 kts | 241° |
| 2026-02-22 06:52 | 30.42986 | 128.67872 | 40031 ft | 373 kts | 241° |
| 2026-02-22 06:52 | 30.39841 | 128.63139 | 40030 ft | 372 kts | 241° |
| 2026-02-22 06:53 | 30.36685 | 128.58396 | 40029 ft | 372 kts | 241° |
| 2026-02-22 06:53 | 30.33508 | 128.53628 | 40029 ft | 372 kts | 241° |
| 2026-02-22 06:54 | 30.30363 | 128.48912 | 40030 ft | 371 kts | 241° |
| 2026-02-22 06:54 | 30.27213 | 128.44194 | 40029 ft | 371 kts | 241° |
| 2026-02-22 06:55 | 30.24048 | 128.39459 | 40032 ft | 371 kts | 241° |
| 2026-02-22 06:55 | 30.20889 | 128.34740 | 40033 ft | 371 kts | 241° |
| 2026-02-22 06:56 | 30.17735 | 128.30034 | 40033 ft | 371 kts | 241° |
| 2026-02-22 06:56 | 30.14573 | 128.25321 | 40030 ft | 370 kts | 241° |
| 2026-02-22 06:57 | 30.11430 | 128.20641 | 40032 ft | 370 kts | 241° |
| 2026-02-22 06:57 | 30.08271 | 128.15944 | 40030 ft | 370 kts | 241° |
| 2026-02-22 06:58 | 30.05105 | 128.11241 | 40028 ft | 370 kts | 241° |
| 2026-02-22 06:58 | 30.01949 | 128.06559 | 40032 ft | 370 kts | 241° |
| 2026-02-22 06:59 | 29.98773 | 128.01853 | 40029 ft | 370 kts | 241° |
| 2026-02-22 06:59 | 29.95623 | 127.97189 | 40033 ft | 370 kts | 241° |
| 2026-02-22 07:00 | 29.92460 | 127.92514 | 40032 ft | 370 kts | 241° |
| 2026-02-22 07:00 | 29.89282 | 127.87820 | 40034 ft | 370 kts | 241° |
| 2026-02-22 07:01 | 29.86103 | 127.83168 | 40036 ft | 371 kts | 240° |
| 2026-02-22 07:01 | 29.82765 | 127.78604 | 40032 ft | 373 kts | 238° |
| 2026-02-22 07:02 | 29.79383 | 127.74109 | 40031 ft | 373 kts | 238° |
| 2026-02-22 07:02 | 29.75981 | 127.69579 | 40045 ft | 373 kts | 238° |
| 2026-02-22 07:03 | 29.72607 | 127.65067 | 40031 ft | 373 kts | 238° |
| 2026-02-22 07:03 | 29.69220 | 127.60529 | 40043 ft | 373 kts | 238° |
| 2026-02-22 07:04 | 29.65838 | 127.56005 | 40040 ft | 373 kts | 238° |
| 2026-02-22 07:04 | 29.62456 | 127.51486 | 40039 ft | 374 kts | 238° |
| 2026-02-22 07:05 | 29.59063 | 127.46953 | 40037 ft | 373 kts | 239° |
| 2026-02-22 07:05 | 29.55782 | 127.42331 | 40040 ft | 371 kts | 240° |
| 2026-02-22 07:06 | 29.52591 | 127.37672 | 40041 ft | 371 kts | 240° |
| 2026-02-22 07:06 | 29.49396 | 127.33011 | 40035 ft | 371 kts | 240° |
| 2026-02-22 07:07 | 29.46203 | 127.28383 | 40035 ft | 372 kts | 240° |
| 2026-02-22 07:07 | 29.42977 | 127.23725 | 40035 ft | 372 kts | 240° |
| 2026-02-22 07:08 | 29.39762 | 127.19091 | 40031 ft | 372 kts | 240° |
| 2026-02-22 07:08 | 29.36513 | 127.14413 | 40031 ft | 373 kts | 240° |
| 2026-02-22 07:09 | 29.33301 | 127.09792 | 40032 ft | 373 kts | 240° |
| 2026-02-22 07:09 | 29.30049 | 127.05119 | 40035 ft | 373 kts | 240° |
| 2026-02-22 07:10 | 29.26813 | 127.00474 | 40032 ft | 373 kts | 240° |
| 2026-02-22 07:10 | 29.23587 | 126.95848 | 40034 ft | 374 kts | 240° |
| 2026-02-22 07:11 | 29.20333 | 126.91189 | 40038 ft | 374 kts | 240° |
| 2026-02-22 07:11 | 29.17093 | 126.86554 | 40035 ft | 374 kts | 240° |
| 2026-02-22 07:12 | 29.13840 | 126.81906 | 40037 ft | 374 kts | 239° |
| 2026-02-22 07:12 | 29.10584 | 126.77259 | 40044 ft | 374 kts | 239° |
| 2026-02-22 07:13 | 29.07315 | 126.72598 | 40034 ft | 375 kts | 239° |
| 2026-02-22 07:13 | 29.04061 | 126.67964 | 40031 ft | 375 kts | 239° |
| 2026-02-22 07:14 | 29.00793 | 126.63315 | 40032 ft | 376 kts | 239° |
| 2026-02-22 07:14 | 28.98061 | 126.59433 | 40032 ft | 376 kts | 239° |
| 2026-02-22 07:15 | 28.94737 | 126.54823 | 40032 ft | 377 kts | 238° |
| 2026-02-22 07:15 | 28.91336 | 126.50242 | 40029 ft | 378 kts | 238° |
| 2026-02-22 07:16 | 28.87942 | 126.45688 | 40030 ft | 378 kts | 238° |
| 2026-02-22 07:16 | 28.84544 | 126.41120 | 40033 ft | 378 kts | 238° |
| 2026-02-22 07:17 | 28.81142 | 126.36542 | 40032 ft | 378 kts | 238° |
| 2026-02-22 07:17 | 28.77751 | 126.31982 | 40032 ft | 378 kts | 238° |
| 2026-02-22 07:18 | 28.74346 | 126.27408 | 40032 ft | 378 kts | 238° |
| 2026-02-22 07:18 | 28.70935 | 126.22832 | 40033 ft | 379 kts | 238° |